createdAt,value
2018-04-30T00:00:06.214Z,98.9
2018-04-30T00:01:06.214Z,99.48
2018-04-30T00:02:06.210Z,99.48
2018-04-30T00:03:06.199Z,98.81
2018-04-30T00:04:06.196Z,99.29
2018-04-30T00:05:06.187Z,98.9
2018-04-30T00:06:05.926Z,98.04
2018-04-30T00:07:06.179Z,98.71
2018-04-30T00:08:05.916Z,98.9
2018-04-30T00:09:06.168Z,99.19
2018-04-30T00:10:06.162Z,98.9
2018-04-30T00:11:06.161Z,98.04
2018-04-30T00:12:05.897Z,98.24
2018-04-30T00:13:05.894Z,99
2018-04-30T00:14:06.147Z,99
2018-04-30T00:15:06.143Z,98.71
2018-04-30T00:16:05.875Z,99.1
2018-04-30T00:17:06.129Z,99.19
2018-04-30T00:18:06.132Z,98.61
2018-04-30T00:19:06.119Z,98.81
2018-04-30T00:20:06.108Z,99
2018-04-30T00:21:06.108Z,99.57
2018-04-30T00:22:05.843Z,99.38
2018-04-30T00:23:06.094Z,99.29
2018-04-30T00:24:05.834Z,99.29
2018-04-30T00:25:05.830Z,99.48
2018-04-30T00:26:05.824Z,99.19
2018-04-30T00:27:06.082Z,99.29
2018-04-30T00:28:06.071Z,99.57
2018-04-30T00:29:06.066Z,99.86
2018-04-30T00:30:06.062Z,99.38
2018-04-30T00:31:05.799Z,99.76
2018-04-30T00:32:06.059Z,99.99
2018-04-30T00:33:06.046Z,99.29
2018-04-30T00:34:05.787Z,99.19
2018-04-30T00:35:05.776Z,98.9
2018-04-30T00:36:05.771Z,98.61
2018-04-30T00:37:05.770Z,99.38
2018-04-30T00:38:06.019Z,99.57
2018-04-30T00:39:05.764Z,99.38
2018-04-30T00:40:06.006Z,99.1
2018-04-30T00:41:06.005Z,99.29
2018-04-30T00:42:05.740Z,99.19
2018-04-30T00:43:05.993Z,99.38
2018-04-30T00:44:05.731Z,99.38
2018-04-30T00:45:05.985Z,99.86
2018-04-30T00:46:05.728Z,99.86
2018-04-30T00:47:05.972Z,99.99
2018-04-30T00:48:05.969Z,99.96
2018-04-30T00:49:05.704Z,99.76
2018-04-30T00:50:05.701Z,99.48
2018-04-30T00:51:05.949Z,99.96
2018-04-30T00:52:05.691Z,99.57
2018-04-30T00:53:05.682Z,99.86
2018-04-30T00:54:05.934Z,99.86
2018-04-30T00:55:06.086Z,99.96
2018-04-30T00:56:05.932Z,99.38
2018-04-30T00:57:05.922Z,99.76
2018-04-30T00:58:05.660Z,99.67
2018-04-30T00:59:05.911Z,99.86
2018-04-30T01:00:05.651Z,99.67
2018-04-30T01:01:05.902Z,99.57
2018-04-30T01:02:05.637Z,99.96
2018-04-30T01:03:05.899Z,99.67
2018-04-30T01:04:05.886Z,99.57
2018-04-30T01:05:05.621Z,99.48
2018-04-30T01:06:05.615Z,99.76
2018-04-30T01:07:05.873Z,99.67
2018-04-30T01:08:05.863Z,99.99
2018-04-30T01:09:05.601Z,99.67
2018-04-30T01:10:05.854Z,99.99
2018-04-30T01:11:05.846Z,99.67
2018-04-30T01:12:05.856Z,99.99
2018-04-30T01:13:05.582Z,99.96
2018-04-30T01:14:05.833Z,99.29
2018-04-30T01:15:05.571Z,99.48
2018-04-30T01:16:05.822Z,99.76
2018-04-30T01:17:05.560Z,99.76
2018-04-30T01:18:05.553Z,99.52
2018-04-30T01:19:05.806Z,99.62
2018-04-30T01:20:05.801Z,99.33
2018-04-30T01:21:05.542Z,99.14
2018-04-30T01:22:05.532Z,99.33
2018-04-30T01:23:05.528Z,99.24
2018-04-30T01:24:05.778Z,99.24
2018-04-30T01:25:05.776Z,99.04
2018-04-30T01:26:05.511Z,99.33
2018-04-30T01:27:05.824Z,99.14
2018-04-30T01:28:05.767Z,99.24
2018-04-30T01:29:05.499Z,99.33
2018-04-30T01:30:05.749Z,98.95
2018-04-30T01:31:05.750Z,99.14
2018-04-30T01:32:05.735Z,98.75
2018-04-30T01:33:05.733Z,99.33
2018-04-30T01:34:05.729Z,99.33
2018-04-30T01:35:05.723Z,99.24
2018-04-30T01:36:05.712Z,99.24
2018-04-30T01:37:05.451Z,99.33
2018-04-30T01:38:05.702Z,99.43
2018-04-30T01:39:05.440Z,99.24
2018-04-30T01:40:05.439Z,99.43
2018-04-30T01:41:05.691Z,99.24
2018-04-30T01:42:05.685Z,99.14
2018-04-30T01:43:05.684Z,99.62
2018-04-30T01:44:05.668Z,99.62
2018-04-30T01:45:05.666Z,99.62
2018-04-30T01:46:05.404Z,99.81
2018-04-30T01:47:05.652Z,99.33
2018-04-30T01:48:05.643Z,99.99
2018-04-30T01:49:05.640Z,99.99
2018-04-30T01:50:05.638Z,99.52
2018-04-30T01:51:05.632Z,99.28
2018-04-30T01:52:05.625Z,99.81
2018-04-30T01:53:05.626Z,99.85
2018-04-30T01:54:05.358Z,99.71
2018-04-30T01:55:05.609Z,99.99
2018-04-30T01:56:05.604Z,99.71
2018-04-30T01:57:05.599Z,99.85
2018-04-30T01:58:05.335Z,99.33
2018-04-30T01:59:05.327Z,99.33
2018-04-30T02:00:05.322Z,99.66
2018-04-30T02:01:05.584Z,99.57
2018-04-30T02:02:05.576Z,99.38
2018-04-30T02:03:05.306Z,99.19
2018-04-30T02:04:05.303Z,99.28
2018-04-30T02:05:05.296Z,99.38
2018-04-30T02:06:05.547Z,99.28
2018-04-30T02:07:05.285Z,99.28
2018-04-30T02:08:05.276Z,99.48
2018-04-30T02:09:05.531Z,99.48
2018-04-30T02:10:05.539Z,99.28
2018-04-30T02:11:05.258Z,99.28
2018-04-30T02:12:05.580Z,99.99
2018-04-30T02:13:05.249Z,99.38
2018-04-30T02:14:05.504Z,99.38
2018-04-30T02:15:05.487Z,99.19
2018-04-30T02:16:05.489Z,99.19
2018-04-30T02:17:05.485Z,99.28
2018-04-30T02:18:05.476Z,99.38
2018-04-30T02:19:05.470Z,99.48
2018-04-30T02:20:05.208Z,99.38
2018-04-30T02:21:05.198Z,99.57
2018-04-30T02:22:05.195Z,99.57
2018-04-30T02:23:05.200Z,99.99
2018-04-30T02:24:05.440Z,99.99
2018-04-30T02:25:05.434Z,99.99
2018-04-30T02:26:05.430Z,99.99
2018-04-30T02:27:05.423Z,99.99
2018-04-30T02:28:05.414Z,99.99
2018-04-30T02:29:05.407Z,99.99
2018-04-30T02:30:05.456Z,99.99
2018-04-30T02:31:05.399Z,99.99
2018-04-30T02:32:05.397Z,99.99
2018-04-30T02:33:05.389Z,99.99
2018-04-30T02:34:05.128Z,99.95
2018-04-30T02:35:05.377Z,99.99
2018-04-30T02:36:05.373Z,99.57
2018-04-30T02:37:05.362Z,99.57
2018-04-30T02:38:05.359Z,99.99
2018-04-30T02:39:05.363Z,99.57
2018-04-30T02:40:05.347Z,99.38
2018-04-30T02:41:05.082Z,99.52
2018-04-30T02:42:05.336Z,99.66
2018-04-30T02:43:05.332Z,99.23
2018-04-30T02:44:05.330Z,99.33
2018-04-30T02:45:05.059Z,99.62
2018-04-30T02:46:05.055Z,99.52
2018-04-30T02:47:05.301Z,99.14
2018-04-30T02:48:05.308Z,99.14
2018-04-30T02:49:05.035Z,98.47
2018-04-30T02:50:05.301Z,98.57
2018-04-30T02:51:05.279Z,99.14
2018-04-30T02:52:05.279Z,98.75
2018-04-30T02:53:05.010Z,98.37
2018-04-30T02:54:05.261Z,98.57
2018-04-30T02:55:04.996Z,98.28
2018-04-30T02:56:04.993Z,98.47
2018-04-30T02:57:05.246Z,98.37
2018-04-30T02:58:05.286Z,98.28
2018-04-30T02:59:05.236Z,97.52
2018-04-30T03:00:05.253Z,98.94
2018-04-30T03:01:05.215Z,98.9
2018-04-30T03:02:05.219Z,98.28
2018-04-30T03:03:05.209Z,97.8
2018-04-30T03:04:05.195Z,98.28
2018-04-30T03:05:05.190Z,97.42
2018-04-30T03:06:04.927Z,97.42
2018-04-30T03:07:05.187Z,98.23
2018-04-30T03:08:05.174Z,98.47
2018-04-30T03:09:04.908Z,97.94
2018-04-30T03:10:05.164Z,98.08
2018-04-30T03:11:04.896Z,98.18
2018-04-30T03:12:05.146Z,97.61
2018-04-30T03:13:05.145Z,98.03
2018-04-30T03:14:04.884Z,97.71
2018-04-30T03:15:05.194Z,97.89
2018-04-30T03:16:05.119Z,97.52
2018-04-30T03:17:04.854Z,97.32
2018-04-30T03:18:05.118Z,97.66
2018-04-30T03:19:05.177Z,96.89
2018-04-30T03:20:05.108Z,96.8
2018-04-30T03:21:05.089Z,97.27
2018-04-30T03:22:04.823Z,97.18
2018-04-30T03:23:05.080Z,96.61
2018-04-30T03:24:05.069Z,96.8
2018-04-30T03:25:05.071Z,97.75
2018-04-30T03:26:04.800Z,97.66
2018-04-30T03:27:05.052Z,96.98
2018-04-30T03:28:04.786Z,96.8
2018-04-30T03:29:05.038Z,96.51
2018-04-30T03:30:05.048Z,96.89
2018-04-30T03:31:05.027Z,96.7
2018-04-30T03:32:04.759Z,96.89
2018-04-30T03:33:04.752Z,96.51
2018-04-30T03:34:05.000Z,96.51
2018-04-30T03:35:04.995Z,96.13
2018-04-30T03:36:04.992Z,95.84
2018-04-30T03:37:04.980Z,95.65
2018-04-30T03:38:04.980Z,95.46
2018-04-30T03:39:04.974Z,95.36
2018-04-30T03:40:04.716Z,95.84
2018-04-30T03:41:04.962Z,95.17
2018-04-30T03:42:04.950Z,95.75
2018-04-30T03:43:04.946Z,95.56
2018-04-30T03:44:04.941Z,95.56
2018-04-30T03:45:04.673Z,95.27
2018-04-30T03:46:04.926Z,94.79
2018-04-30T03:47:04.924Z,95.08
2018-04-30T03:48:04.912Z,94.12
2018-04-30T03:49:04.907Z,94.41
2018-04-30T03:50:04.907Z,94.41
2018-04-30T03:51:04.633Z,94.51
2018-04-30T03:52:04.883Z,94.22
2018-04-30T03:53:04.620Z,93.74
2018-04-30T03:54:04.616Z,93.26
2018-04-30T03:55:04.867Z,93.17
2018-04-30T03:56:04.597Z,92.41
2018-04-30T03:57:04.848Z,93.07
2018-04-30T03:58:04.843Z,93.65
2018-04-30T03:59:04.577Z,93.74
2018-04-30T04:00:04.829Z,94.03
2018-04-30T04:01:04.566Z,94.12
2018-04-30T04:02:04.567Z,93.65
2018-04-30T04:03:04.603Z,94.22
2018-04-30T04:04:04.546Z,94.12
2018-04-30T04:05:04.798Z,94.98
2018-04-30T04:06:04.794Z,95.46
2018-04-30T04:07:04.524Z,95.41
2018-04-30T04:08:04.780Z,95.56
2018-04-30T04:09:04.773Z,96.32
2018-04-30T04:10:04.760Z,96.7
2018-04-30T04:11:04.755Z,96.89
2018-04-30T04:12:04.492Z,96.22
2018-04-30T04:13:04.745Z,96.17
2018-04-30T04:14:04.738Z,96.61
2018-04-30T04:15:04.734Z,96.84
2018-04-30T04:16:04.725Z,96.66
2018-04-30T04:17:04.717Z,97.71
2018-04-30T04:18:04.459Z,98.18
2018-04-30T04:19:04.708Z,98.08
2018-04-30T04:20:04.438Z,98.18
2018-04-30T04:21:04.695Z,97.42
2018-04-30T04:22:04.704Z,98.85
2018-04-30T04:23:04.420Z,98.75
2018-04-30T04:24:04.418Z,99.52
2018-04-30T04:25:04.664Z,99.62
2018-04-30T04:26:04.398Z,98.47
2018-04-30T04:27:04.392Z,99.04
2018-04-30T04:28:04.645Z,99.14
2018-04-30T04:29:04.633Z,98.85
2018-04-30T04:30:04.630Z,99.04
2018-04-30T04:31:04.366Z,99.28
2018-04-30T04:32:04.621Z,99.14
2018-04-30T04:33:04.608Z,99.14
2018-04-30T04:34:04.614Z,99.52
2018-04-30T04:35:04.600Z,99.38
2018-04-30T04:36:04.590Z,99.19
2018-04-30T04:37:04.327Z,99.99
2018-04-30T04:38:04.319Z,99.66
2018-04-30T04:39:04.572Z,99.99
2018-04-30T04:40:04.307Z,99.95
2018-04-30T04:41:04.300Z,99.99
2018-04-30T04:42:04.552Z,99.85
2018-04-30T04:43:04.548Z,99.99
2018-04-30T04:44:04.281Z,99.99
2018-04-30T04:45:04.277Z,99.95
2018-04-30T04:46:04.267Z,99.99
2018-04-30T04:47:04.516Z,99.99
2018-04-30T04:48:04.532Z,99.99
2018-04-30T04:49:04.506Z,99.99
2018-04-30T04:50:04.243Z,99.99
2018-04-30T04:51:04.542Z,99.99
2018-04-30T04:52:04.490Z,99.99
2018-04-30T04:53:04.224Z,99.99
2018-04-30T04:54:04.218Z,99.99
2018-04-30T04:55:04.481Z,99.99
2018-04-30T04:56:04.208Z,99.9
2018-04-30T04:57:04.467Z,99.99
2018-04-30T04:58:04.193Z,99.71
2018-04-30T04:59:04.187Z,98.18
2018-04-30T05:00:04.447Z,97.33
2018-04-30T05:01:04.175Z,96.89
2018-04-30T05:02:04.171Z,96.99
2018-04-30T05:03:04.424Z,96.42
2018-04-30T05:04:04.160Z,94.7
2018-04-30T05:05:04.151Z,94.41
2018-04-30T05:06:04.400Z,94.17
2018-04-30T05:07:04.402Z,93.98
2018-04-30T05:08:04.402Z,94.26
2018-04-30T05:09:04.127Z,95.12
2018-04-30T05:10:04.386Z,95.51
2018-04-30T05:11:04.376Z,95.61
2018-04-30T05:12:04.110Z,95.89
2018-04-30T05:13:04.104Z,96.99
2018-04-30T05:14:04.105Z,97.71
2018-04-30T05:15:04.096Z,97.71
2018-04-30T05:16:04.091Z,97.61
2018-04-30T05:17:04.350Z,97.9
2018-04-30T05:18:04.343Z,98.47
2018-04-30T05:19:04.074Z,98.57
2018-04-30T05:20:04.071Z,98.66
2018-04-30T05:21:04.417Z,99.15
2018-04-30T05:22:04.319Z,99.91
2018-04-30T05:23:04.050Z,99.99
2018-04-30T05:24:04.303Z,99.99
2018-04-30T05:25:04.308Z,99.19
2018-04-30T05:26:04.040Z,99.72
2018-04-30T05:27:04.291Z,99.96
2018-04-30T05:28:04.289Z,99.99
2018-04-30T05:29:04.279Z,99.99
2018-04-30T05:30:04.017Z,99.99
2018-04-30T05:31:04.268Z,99.99
2018-04-30T05:32:04.009Z,99.99
2018-04-30T05:33:04.265Z,99.99
2018-04-30T05:34:03.995Z,99.99
2018-04-30T05:35:03.991Z,99.99
2018-04-30T05:36:04.246Z,99.99
2018-04-30T05:37:04.238Z,99.99
2018-04-30T05:38:03.980Z,99.99
2018-04-30T05:39:04.230Z,99.99
2018-04-30T05:40:04.227Z,99.99
2018-04-30T05:41:03.962Z,99.99
2018-04-30T05:42:04.212Z,99.99
2018-04-30T05:43:03.953Z,99.99
2018-04-30T05:44:04.208Z,99.99
2018-04-30T05:45:04.197Z,99.99
2018-04-30T05:46:04.194Z,99.99
2018-04-30T05:47:03.936Z,99.99
2018-04-30T05:48:03.972Z,99.99
2018-04-30T05:49:04.184Z,99.99
2018-04-30T05:50:03.923Z,99.99
2018-04-30T05:51:04.191Z,99.99
2018-04-30T05:52:03.912Z,99.99
2018-04-30T05:53:04.247Z,99.99
2018-04-30T05:54:04.168Z,99.52
2018-04-30T05:55:03.896Z,99.99
2018-04-30T05:56:03.889Z,99.99
2018-04-30T05:57:03.885Z,99.99
2018-04-30T05:58:03.881Z,99.99
2018-04-30T05:59:04.129Z,99.99
2018-04-30T06:00:03.869Z,99.99
2018-04-30T06:01:04.119Z,99.77
2018-04-30T06:02:04.153Z,99.99
2018-04-30T06:03:04.112Z,99.99
2018-04-30T06:04:04.109Z,99.99
2018-04-30T06:05:03.872Z,99.99
2018-04-30T06:06:04.097Z,99.99
2018-04-30T06:07:04.098Z,99.87
2018-04-30T06:08:04.087Z,99.99
2018-04-30T06:09:04.083Z,99.99
2018-04-30T06:10:03.824Z,99.99
2018-04-30T06:11:04.074Z,99.99
2018-04-30T06:12:04.183Z,99.99
2018-04-30T06:13:03.810Z,99.99
2018-04-30T06:14:03.803Z,99.96
2018-04-30T06:15:04.055Z,99.99
2018-04-30T06:16:03.793Z,99.99
2018-04-30T06:17:04.048Z,99.99
2018-04-30T06:18:04.042Z,99.99
2018-04-30T06:19:04.047Z,99.99
2018-04-30T06:20:04.033Z,99.99
2018-04-30T06:21:04.030Z,99.99
2018-04-30T06:22:04.031Z,99.99
2018-04-30T06:23:04.032Z,99.72
2018-04-30T06:24:04.015Z,99.99
2018-04-30T06:25:03.755Z,99.43
2018-04-30T06:26:03.751Z,99.99
2018-04-30T06:27:03.746Z,99.63
2018-04-30T06:28:04.086Z,99.91
2018-04-30T06:29:03.735Z,99.34
2018-04-30T06:30:03.729Z,99
2018-04-30T06:31:03.730Z,99.99
2018-04-30T06:32:03.726Z,99.96
2018-04-30T06:33:03.725Z,99.96
2018-04-30T06:34:03.974Z,99.19
2018-04-30T06:35:03.715Z,99.19
2018-04-30T06:36:03.967Z,99.48
2018-04-30T06:37:03.962Z,99.29
2018-04-30T06:38:03.956Z,98.66
2018-04-30T06:39:03.954Z,99.52
2018-04-30T06:40:03.953Z,99.99
2018-04-30T06:41:03.938Z,99.81
2018-04-30T06:42:03.938Z,98.81
2018-04-30T06:43:03.938Z,98.81
2018-04-30T06:44:03.670Z,98.61
2018-04-30T06:45:03.921Z,97.71
2018-04-30T06:46:03.932Z,97.52
2018-04-30T06:47:03.657Z,96.13
2018-04-30T06:48:03.907Z,91.72
2018-04-30T06:49:03.903Z,86.68
2018-04-30T06:50:03.898Z,85.86
2018-04-30T06:51:03.897Z,82.03
2018-04-30T06:52:03.899Z,78.8
2018-04-30T06:53:03.894Z,74.81
2018-04-30T06:54:03.890Z,71.39
2018-04-30T06:55:03.624Z,67.22
2018-04-30T06:56:03.883Z,65.24
2018-04-30T06:57:03.619Z,63.06
2018-04-30T06:58:03.873Z,62.41
2018-04-30T06:59:03.881Z,59.65
2018-04-30T07:00:03.878Z,56.69
2018-04-30T07:01:03.617Z,53.15
2018-04-30T07:02:03.611Z,50.93
2018-04-30T07:03:03.867Z,49.9
2018-04-30T07:04:03.869Z,50.89
2018-04-30T07:05:03.873Z,47.91
2018-04-30T07:06:03.605Z,48.21
2018-04-30T07:07:03.861Z,50.4
2018-04-30T07:08:03.859Z,52.57
2018-04-30T07:09:03.886Z,54.57
2018-04-30T07:10:03.604Z,56.44
2018-04-30T07:11:03.863Z,59.2
2018-04-30T07:12:03.864Z,61.16
2018-04-30T07:13:03.863Z,62.77
2018-04-30T07:14:03.604Z,67.16
2018-04-30T07:15:03.861Z,70.49
2018-04-30T07:16:03.858Z,73.81
2018-04-30T07:17:03.876Z,77.8
2018-04-30T07:18:03.596Z,80.45
2018-04-30T07:19:03.864Z,82.46
2018-04-30T07:20:04.023Z,85.88
2018-04-30T07:21:03.852Z,87.08
2018-04-30T07:22:03.849Z,88.32
2018-04-30T07:23:03.588Z,87.84
2018-04-30T07:24:03.593Z,89.66
2018-04-30T07:25:03.843Z,91.63
2018-04-30T07:26:03.588Z,92.21
2018-04-30T07:27:03.580Z,93.07
2018-04-30T07:28:03.835Z,91.63
2018-04-30T07:29:03.830Z,91.87
2018-04-30T07:30:03.572Z,92.63
2018-04-30T07:31:03.570Z,93.98
2018-04-30T07:32:03.566Z,92.06
2018-04-30T07:33:03.615Z,91.11
2018-04-30T07:34:03.820Z,90.44
2018-04-30T07:35:03.554Z,91.68
2018-04-30T07:36:03.553Z,91.16
2018-04-30T07:37:03.804Z,91.06
2018-04-30T07:38:03.799Z,91.35
2018-04-30T07:39:03.633Z,88.76
2018-04-30T07:40:03.796Z,88.52
2018-04-30T07:41:03.796Z,87.27
2018-04-30T07:42:03.786Z,85.46
2018-04-30T07:43:03.782Z,84.59
2018-04-30T07:44:03.780Z,82.01
2018-04-30T07:45:03.513Z,80.33
2018-04-30T07:46:03.770Z,82.53
2018-04-30T07:47:03.767Z,82.06
2018-04-30T07:48:03.502Z,83.64
2018-04-30T07:49:03.763Z,83.83
2018-04-30T07:50:03.762Z,83.26
2018-04-30T07:51:03.760Z,84.02
2018-04-30T07:52:03.746Z,82.11
2018-04-30T07:53:03.741Z,81.63
2018-04-30T07:54:03.737Z,85.89
2018-04-30T07:55:03.735Z,85.32
2018-04-30T07:56:03.472Z,86.18
2018-04-30T07:57:03.726Z,82.74
2018-04-30T07:58:03.721Z,82.17
2018-04-30T07:59:03.716Z,82.45
2018-04-30T08:00:03.712Z,82.93
2018-04-30T08:01:03.705Z,82.45
2018-04-30T08:02:03.444Z,80.25
2018-04-30T08:03:03.450Z,79.96
2018-04-30T08:04:03.437Z,83.93
2018-04-30T08:05:03.431Z,80.96
2018-04-30T08:06:03.684Z,77.94
2018-04-30T08:07:03.424Z,83.3
2018-04-30T08:08:03.676Z,77.08
2018-04-30T08:09:03.700Z,76.89
2018-04-30T08:10:03.671Z,76.6
2018-04-30T08:11:03.671Z,76.31
2018-04-30T08:12:03.658Z,77.69
2018-04-30T08:13:03.658Z,74.24
2018-04-30T08:14:03.393Z,71.37
2018-04-30T08:15:03.648Z,71.75
2018-04-30T08:16:03.385Z,73.61
2018-04-30T08:17:03.384Z,74.57
2018-04-30T08:18:03.633Z,72.74
2018-04-30T08:19:03.633Z,73.55
2018-04-30T08:20:03.370Z,64.72
2018-04-30T08:21:03.624Z,65.05
2018-04-30T08:22:03.619Z,60.63
2018-04-30T08:23:03.625Z,63.48
2018-04-30T08:24:03.354Z,67.41
2018-04-30T08:25:03.615Z,65.62
2018-04-30T08:26:03.604Z,62.07
2018-04-30T08:27:03.603Z,60.66
2018-04-30T08:28:03.346Z,57.3
2018-04-30T08:29:03.597Z,58.07
2018-04-30T08:30:03.593Z,55.86
2018-04-30T08:31:03.333Z,55
2018-04-30T08:32:03.591Z,51.45
2018-04-30T08:33:03.585Z,53.08
2018-04-30T08:34:03.322Z,53.94
2018-04-30T08:35:03.579Z,55.77
2018-04-30T08:36:03.315Z,52.76
2018-04-30T08:37:03.568Z,52.57
2018-04-30T08:38:03.569Z,52.57
2018-04-30T08:39:03.568Z,54.78
2018-04-30T08:40:03.576Z,56.12
2018-04-30T08:41:03.304Z,54.49
2018-04-30T08:42:03.560Z,54.94
2018-04-30T08:43:03.553Z,53.41
2018-04-30T08:44:03.559Z,56.29
2018-04-30T08:45:03.643Z,58.01
2018-04-30T08:46:03.549Z,56.29
2018-04-30T08:47:03.554Z,54.39
2018-04-30T08:48:03.547Z,51.81
2018-04-30T08:49:03.562Z,50.37
2018-04-30T08:50:03.278Z,50.08
2018-04-30T08:51:03.533Z,51.1
2018-04-30T08:52:03.315Z,51.68
2018-04-30T08:53:03.534Z,51.78
2018-04-30T08:54:03.273Z,52.55
2018-04-30T08:55:03.527Z,52.45
2018-04-30T08:56:03.520Z,53.22
2018-04-30T08:57:03.518Z,54.66
2018-04-30T08:58:03.518Z,52.36
2018-04-30T08:59:03.517Z,52.38
2018-04-30T09:00:03.519Z,51.23
2018-04-30T09:01:03.508Z,52.09
2018-04-30T09:02:03.246Z,49.52
2018-04-30T09:03:03.504Z,50.78
2018-04-30T09:04:03.509Z,47.41
2018-04-30T09:05:03.500Z,47.25
2018-04-30T09:06:03.234Z,50.32
2018-04-30T09:07:03.494Z,47.82
2018-04-30T09:08:03.491Z,47.25
2018-04-30T09:09:03.533Z,44.75
2018-04-30T09:10:03.483Z,48.02
2018-04-30T09:11:03.479Z,48.11
2018-04-30T09:12:03.481Z,48.18
2018-04-30T09:13:03.472Z,47.71
2018-04-30T09:14:03.473Z,47.99
2018-04-30T09:15:03.606Z,48.74
2018-04-30T09:16:03.471Z,50.08
2018-04-30T09:17:03.469Z,50.17
2018-04-30T09:18:03.480Z,51.25
2018-04-30T09:19:03.463Z,52.38
2018-04-30T09:20:03.458Z,49.88
2018-04-30T09:21:03.201Z,47.77
2018-04-30T09:22:03.521Z,50.75
2018-04-30T09:23:03.449Z,49.6
2018-04-30T09:24:03.454Z,50.15
2018-04-30T09:25:03.448Z,49.96
2018-04-30T09:26:03.448Z,51.59
2018-04-30T09:27:03.443Z,50.34
2018-04-30T09:28:03.485Z,50.94
2018-04-30T09:29:03.618Z,48.54
2018-04-30T09:30:03.507Z,50.27
2018-04-30T09:31:03.431Z,47.58
2018-04-30T09:32:03.431Z,47.2
2018-04-30T09:33:03.169Z,47.39
2018-04-30T09:34:03.424Z,48.64
2018-04-30T09:35:03.231Z,47.58
2018-04-30T09:36:03.421Z,48.25
2018-04-30T09:37:03.412Z,48.04
2018-04-30T09:38:03.412Z,48.9
2018-04-30T09:39:03.416Z,49.19
2018-04-30T09:40:03.407Z,47.53
2018-04-30T09:41:03.402Z,47.92
2018-04-30T09:42:03.404Z,49.07
2018-04-30T09:43:03.138Z,50.12
2018-04-30T09:44:03.397Z,50.32
2018-04-30T09:45:03.393Z,51.46
2018-04-30T09:46:03.132Z,48.78
2018-04-30T09:47:03.384Z,48.88
2018-04-30T09:48:03.124Z,48.69
2018-04-30T09:49:03.387Z,50.32
2018-04-30T09:50:03.380Z,50.7
2018-04-30T09:51:03.372Z,49.76
2018-04-30T09:52:03.117Z,47.94
2018-04-30T09:53:03.111Z,49.86
2018-04-30T09:54:03.372Z,50.05
2018-04-30T09:55:03.362Z,51.78
2018-04-30T09:56:03.360Z,50.56
2018-04-30T09:57:03.364Z,47.97
2018-04-30T09:58:03.096Z,47.58
2018-04-30T09:59:03.095Z,47.77
2018-04-30T10:00:03.350Z,47.03
2018-04-30T10:01:03.342Z,47.71
2018-04-30T10:02:03.341Z,47.32
2018-04-30T10:03:03.342Z,47.72
2018-04-30T10:04:03.340Z,44.37
2018-04-30T10:05:03.079Z,44.46
2018-04-30T10:06:03.337Z,43.88
2018-04-30T10:07:03.332Z,43.02
2018-04-30T10:08:03.069Z,43.12
2018-04-30T10:09:03.331Z,41.77
2018-04-30T10:10:03.330Z,43.21
2018-04-30T10:11:03.322Z,45.81
2018-04-30T10:12:03.324Z,45.23
2018-04-30T10:13:03.321Z,43.62
2018-04-30T10:14:03.315Z,43.12
2018-04-30T10:15:03.315Z,44.08
2018-04-30T10:16:03.050Z,44.84
2018-04-30T10:17:03.307Z,44.37
2018-04-30T10:18:03.307Z,44.46
2018-04-30T10:19:03.300Z,44.08
2018-04-30T10:20:03.308Z,43.6
2018-04-30T10:21:03.296Z,44.46
2018-04-30T10:22:03.038Z,44.08
2018-04-30T10:23:03.036Z,46.48
2018-04-30T10:24:03.289Z,44.56
2018-04-30T10:25:03.292Z,43.7
2018-04-30T10:26:03.033Z,43.98
2018-04-30T10:27:03.283Z,43.5
2018-04-30T10:28:03.283Z,43
2018-04-30T10:29:03.420Z,42.9
2018-04-30T10:30:03.278Z,43.38
2018-04-30T10:31:03.281Z,44.06
2018-04-30T10:32:03.271Z,44.15
2018-04-30T10:33:03.021Z,46.36
2018-04-30T10:34:03.267Z,45.11
2018-04-30T10:35:03.263Z,45.21
2018-04-30T10:36:03.260Z,44.24
2018-04-30T10:37:03.005Z,44.03
2018-04-30T10:38:03.374Z,44.51
2018-04-30T10:39:03.257Z,44.7
2018-04-30T10:40:03.256Z,45.67
2018-04-30T10:41:03.256Z,46.5
2018-04-30T10:42:03.247Z,47.46
2018-04-30T10:43:03.250Z,47.66
2018-04-30T10:44:02.987Z,49.19
2018-04-30T10:45:03.238Z,51.14
2018-04-30T10:46:03.312Z,50.27
2018-04-30T10:47:03.241Z,47.87
2018-04-30T10:48:03.243Z,47.01
2018-04-30T10:49:03.235Z,46.91
2018-04-30T10:50:02.975Z,48.74
2018-04-30T10:51:03.230Z,48.93
2018-04-30T10:52:03.222Z,49.29
2018-04-30T10:53:03.228Z,48.04
2018-04-30T10:54:03.218Z,49.96
2018-04-30T10:55:03.225Z,49.48
2018-04-30T10:56:02.959Z,48.52
2018-04-30T10:57:03.211Z,48.33
2018-04-30T10:58:03.212Z,51.49
2018-04-30T10:59:02.947Z,49.96
2018-04-30T11:00:03.209Z,50.05
2018-04-30T11:01:03.206Z,48.71
2018-04-30T11:02:02.940Z,48.52
2018-04-30T11:03:02.938Z,48.93
2018-04-30T11:04:03.199Z,47.68
2018-04-30T11:05:03.191Z,48.74
2018-04-30T11:06:03.186Z,46.81
2018-04-30T11:07:03.182Z,46.81
2018-04-30T11:08:03.186Z,48.25
2018-04-30T11:09:03.176Z,46.62
2018-04-30T11:10:02.921Z,47.49
2018-04-30T11:11:03.172Z,48.71
2018-04-30T11:12:02.915Z,49.74
2018-04-30T11:13:03.169Z,50.03
2018-04-30T11:14:02.903Z,50.77
2018-04-30T11:15:02.902Z,51.63
2018-04-30T11:16:03.153Z,51.63
2018-04-30T11:17:03.156Z,52.78
2018-04-30T11:18:03.149Z,51.79
2018-04-30T11:19:02.890Z,52.47
2018-04-30T11:20:03.141Z,51.7
2018-04-30T11:21:03.140Z,54.77
2018-04-30T11:22:02.875Z,53.93
2018-04-30T11:23:03.132Z,51.46
2018-04-30T11:24:03.129Z,52.33
2018-04-30T11:25:03.127Z,51.97
2018-04-30T11:26:03.120Z,48.35
2018-04-30T11:27:03.116Z,49.5
2018-04-30T11:28:02.857Z,48.93
2018-04-30T11:29:03.113Z,48.16
2018-04-30T11:30:02.860Z,48.83
2018-04-30T11:31:03.103Z,48.57
2018-04-30T11:32:02.840Z,50.01
2018-04-30T11:33:03.615Z,48.38
2018-04-30T11:34:02.863Z,48.95
2018-04-30T11:35:03.098Z,47.89
2018-04-30T11:36:03.100Z,48.09
2018-04-30T11:37:03.109Z,47.41
2018-04-30T11:38:03.096Z,49.82
2018-04-30T11:39:03.085Z,49.98
2018-04-30T11:40:03.191Z,51.04
2018-04-30T11:41:03.071Z,48.83
2018-04-30T11:42:03.463Z,48.93
2018-04-30T11:43:03.091Z,50.17
2018-04-30T11:44:03.068Z,47.68
2018-04-30T11:45:02.797Z,46.81
2018-04-30T11:46:03.059Z,47.17
2018-04-30T11:47:03.157Z,47.75
2018-04-30T11:48:03.054Z,47.66
2018-04-30T11:49:03.116Z,48.9
2018-04-30T11:50:02.786Z,48.69
2018-04-30T11:51:02.779Z,49.84
2018-04-30T11:52:02.776Z,48.69
2018-04-30T11:53:03.036Z,48.69
2018-04-30T11:54:02.766Z,49.93
2018-04-30T11:55:02.763Z,50.6
2018-04-30T11:56:03.030Z,52.62
2018-04-30T11:57:03.036Z,53.48
2018-04-30T11:58:02.751Z,53.19
2018-04-30T11:59:02.757Z,54.15
2018-04-30T12:00:03.196Z,54.44
2018-04-30T12:01:03.012Z,52.33
2018-04-30T12:02:03.018Z,53.7
2018-04-30T12:03:02.732Z,51.87
2018-04-30T12:04:02.728Z,52.74
2018-04-30T12:05:03.166Z,52.55
2018-04-30T12:06:02.989Z,53.22
2018-04-30T12:07:02.717Z,51.14
2018-04-30T12:08:02.984Z,50.17
2018-04-30T12:09:02.988Z,48.93
2018-04-30T12:10:02.717Z,47.1
2018-04-30T12:11:03.189Z,46.7
2018-04-30T12:12:02.961Z,48.13
2018-04-30T12:13:02.967Z,48.61
2018-04-30T12:14:02.970Z,47.66
2018-04-30T12:15:02.980Z,48.78
2018-04-30T12:16:02.953Z,48.97
2018-04-30T12:17:02.951Z,48.43
2018-04-30T12:18:02.685Z,49.84
2018-04-30T12:19:02.676Z,48.59
2018-04-30T12:20:02.941Z,49.36
2018-04-30T12:21:02.934Z,50.03
2018-04-30T12:22:02.773Z,48.49
2018-04-30T12:23:02.659Z,50.32
2018-04-30T12:24:02.925Z,51.56
2018-04-30T12:25:02.925Z,53.07
2018-04-30T12:26:02.918Z,50.77
2018-04-30T12:27:02.912Z,54.12
2018-04-30T12:28:02.641Z,52.5
2018-04-30T12:29:02.904Z,52.11
2018-04-30T12:30:02.895Z,52.4
2018-04-30T12:31:02.889Z,54.7
2018-04-30T12:32:02.896Z,53.83
2018-04-30T12:33:02.891Z,54.91
2018-04-30T12:34:02.876Z,53.77
2018-04-30T12:35:02.905Z,53.77
2018-04-30T12:36:02.996Z,51.46
2018-04-30T12:37:03.276Z,52.81
2018-04-30T12:38:02.860Z,51.46
2018-04-30T12:39:02.598Z,48.59
2018-04-30T12:40:02.856Z,48.97
2018-04-30T12:41:02.867Z,50.51
2018-04-30T12:42:02.850Z,50.32
2018-04-30T12:43:02.847Z,51.75
2018-04-30T12:44:02.572Z,54.44
2018-04-30T12:45:02.842Z,50.99
2018-04-30T12:46:03.276Z,50.89
2018-04-30T12:47:02.827Z,47.92
2018-04-30T12:48:02.828Z,50.89
2018-04-30T12:49:02.819Z,52.14
2018-04-30T12:50:02.549Z,50.03
2018-04-30T12:51:02.811Z,48.61
2018-04-30T12:52:02.545Z,48.9
2018-04-30T12:53:02.810Z,46.5
2018-04-30T12:54:02.805Z,47.66